sensor_id;sensor_type;location;lat;lon;timestamp;P1;durP1;ratioP1;P2;durP2;ratioP2
55300;SDS011;58302;51.446;-2.000;2023-04-03T00:01:38;9.18;;;4.22;;
55300;SDS011;58302;51.446;-2.000;2023-04-03T00:04:04;5.43;;;4.00;;
55300;SDS011;58302;51.446;-2.000;2023-04-03T00:06:31;8.25;;;3.97;;
55300;SDS011;58302;51.446;-2.000;2023-04-03T00:08:58;8.88;;;4.22;;
55300;SDS011;58302;51.446;-2.000;2023-04-03T00:11:24;7.80;;;4.35;;
55300;SDS011;58302;51.446;-2.000;2023-04-03T00:13:50;6.95;;;4.07;;
55300;SDS011;58302;51.446;-2.000;2023-04-03T00:16:17;11.00;;;4.22;;
55300;SDS011;58302;51.446;-2.000;2023-04-03T00:18:43;13.45;;;4.82;;
55300;SDS011;58302;51.446;-2.000;2023-04-03T00:21:09;7.00;;;3.40;;
55300;SDS011;58302;51.446;-2.000;2023-04-03T00:23:37;9.52;;;3.97;;
55300;SDS011;58302;51.446;-2.000;2023-04-03T00:26:03;8.30;;;4.60;;
55300;SDS011;58302;51.446;-2.000;2023-04-03T00:28:29;10.30;;;4.28;;
55300;SDS011;58302;51.446;-2.000;2023-04-03T00:30:55;8.20;;;4.13;;
55300;SDS011;58302;51.446;-2.000;2023-04-03T00:33:21;9.95;;;4.13;;
55300;SDS011;58302;51.446;-2.000;2023-04-03T00:35:47;13.95;;;5.35;;
55300;SDS011;58302;51.446;-2.000;2023-04-03T00:38:14;9.00;;;4.07;;
55300;SDS011;58302;51.446;-2.000;2023-04-03T00:40:42;11.07;;;4.20;;
55300;SDS011;58302;51.446;-2.000;2023-04-03T00:43:11;6.53;;;4.03;;
55300;SDS011;58302;51.446;-2.000;2023-04-03T00:45:41;5.78;;;3.88;;
55300;SDS011;58302;51.446;-2.000;2023-04-03T00:48:10;14.82;;;4.30;;
55300;SDS011;58302;51.446;-2.000;2023-04-03T00:50:40;7.68;;;4.43;;
55300;SDS011;58302;51.446;-2.000;2023-04-03T00:53:08;6.22;;;4.07;;
55300;SDS011;58302;51.446;-2.000;2023-04-03T00:55:38;10.35;;;4.07;;
55300;SDS011;58302;51.446;-2.000;2023-04-03T00:58:05;13.10;;;4.53;;
55300;SDS011;58302;51.446;-2.000;2023-04-03T01:00:32;8.93;;;4.05;;
55300;SDS011;58302;51.446;-2.000;2023-04-03T01:03:01;10.48;;;4.05;;
55300;SDS011;58302;51.446;-2.000;2023-04-03T01:05:28;8.25;;;3.80;;
55300;SDS011;58302;51.446;-2.000;2023-04-03T01:07:54;8.38;;;3.60;;
55300;SDS011;58302;51.446;-2.000;2023-04-03T01:10:20;11.38;;;4.47;;
55300;SDS011;58302;51.446;-2.000;2023-04-03T01:12:48;11.40;;;4.47;;
55300;SDS011;58302;51.446;-2.000;2023-04-03T01:15:23;6.80;;;4.22;;
55300;SDS011;58302;51.446;-2.000;2023-04-03T01:17:53;5.88;;;3.40;;
55300;SDS011;58302;51.446;-2.000;2023-04-03T01:28:18;7.32;;;3.22;;
55300;SDS011;58302;51.446;-2.000;2023-04-03T01:33:38;6.93;;;3.50;;
55300;SDS011;58302;51.446;-2.000;2023-04-03T01:36:05;8.25;;;3.75;;
55300;SDS011;58302;51.446;-2.000;2023-04-03T01:38:31;8.10;;;3.47;;
55300;SDS011;58302;51.446;-2.000;2023-04-03T01:40:57;7.10;;;3.88;;
55300;SDS011;58302;51.446;-2.000;2023-04-03T01:43:23;9.88;;;4.07;;
55300;SDS011;58302;51.446;-2.000;2023-04-03T01:45:49;12.23;;;5.25;;
55300;SDS011;58302;51.446;-2.000;2023-04-03T01:48:15;7.25;;;3.58;;
55300;SDS011;58302;51.446;-2.000;2023-04-03T01:50:42;4.47;;;3.22;;
55300;SDS011;58302;51.446;-2.000;2023-04-03T01:53:08;6.40;;;3.38;;
55300;SDS011;58302;51.446;-2.000;2023-04-03T01:55:34;7.63;;;3.65;;
55300;SDS011;58302;51.446;-2.000;2023-04-03T01:58:00;5.10;;;3.72;;
55300;SDS011;58302;51.446;-2.000;2023-04-03T02:00:26;7.88;;;4.00;;
55300;SDS011;58302;51.446;-2.000;2023-04-03T02:02:52;7.93;;;4.25;;
55300;SDS011;58302;51.446;-2.000;2023-04-03T02:05:18;9.25;;;3.80;;
55300;SDS011;58302;51.446;-2.000;2023-04-03T02:07:44;11.88;;;3.55;;
55300;SDS011;58302;51.446;-2.000;2023-04-03T02:10:11;7.00;;;3.28;;
55300;SDS011;58302;51.446;-2.000;2023-04-03T02:12:37;13.43;;;4.22;;
55300;SDS011;58302;51.446;-2.000;2023-04-03T02:15:03;5.90;;;3.03;;
55300;SDS011;58302;51.446;-2.000;2023-04-03T02:17:30;9.32;;;3.50;;
55300;SDS011;58302;51.446;-2.000;2023-04-03T02:19:56;8.57;;;3.95;;
55300;SDS011;58302;51.446;-2.000;2023-04-03T02:22:22;7.03;;;3.80;;
55300;SDS011;58302;51.446;-2.000;2023-04-03T02:24:48;5.60;;;3.42;;
55300;SDS011;58302;51.446;-2.000;2023-04-03T02:27:14;9.05;;;3.78;;
55300;SDS011;58302;51.446;-2.000;2023-04-03T02:29:40;10.90;;;3.60;;
55300;SDS011;58302;51.446;-2.000;2023-04-03T02:32:06;17.92;;;3.75;;
55300;SDS011;58302;51.446;-2.000;2023-04-03T02:34:32;7.30;;;3.17;;
55300;SDS011;58302;51.446;-2.000;2023-04-03T02:36:58;7.53;;;2.63;;
55300;SDS011;58302;51.446;-2.000;2023-04-03T02:39:24;6.10;;;3.20;;
55300;SDS011;58302;51.446;-2.000;2023-04-03T02:41:49;11.00;;;3.72;;
55300;SDS011;58302;51.446;-2.000;2023-04-03T02:44:15;6.97;;;3.53;;
55300;SDS011;58302;51.446;-2.000;2023-04-03T02:46:41;11.73;;;4.38;;
55300;SDS011;58302;51.446;-2.000;2023-04-03T02:49:07;6.20;;;3.38;;
55300;SDS011;58302;51.446;-2.000;2023-04-03T02:51:33;8.48;;;4.45;;
55300;SDS011;58302;51.446;-2.000;2023-04-03T02:54:00;5.47;;;2.83;;
55300;SDS011;58302;51.446;-2.000;2023-04-03T02:56:26;4.05;;;2.85;;
55300;SDS011;58302;51.446;-2.000;2023-04-03T02:58:52;14.32;;;3.78;;
55300;SDS011;58302;51.446;-2.000;2023-04-03T03:01:18;4.72;;;2.95;;
55300;SDS011;58302;51.446;-2.000;2023-04-03T03:03:44;7.97;;;3.45;;
55300;SDS011;58302;51.446;-2.000;2023-04-03T03:06:11;5.68;;;2.88;;
55300;SDS011;58302;51.446;-2.000;2023-04-03T03:08:39;6.35;;;3.22;;
55300;SDS011;58302;51.446;-2.000;2023-04-03T03:11:06;3.28;;;2.20;;
55300;SDS011;58302;51.446;-2.000;2023-04-03T03:13:32;4.85;;;2.88;;
55300;SDS011;58302;51.446;-2.000;2023-04-03T03:15:58;3.63;;;2.10;;
55300;SDS011;58302;51.446;-2.000;2023-04-03T03:18:25;6.28;;;3.17;;
55300;SDS011;58302;51.446;-2.000;2023-04-03T03:20:52;10.18;;;2.97;;
55300;SDS011;58302;51.446;-2.000;2023-04-03T03:23:18;8.30;;;2.53;;
55300;SDS011;58302;51.446;-2.000;2023-04-03T03:25:45;7.82;;;3.63;;
55300;SDS011;58302;51.446;-2.000;2023-04-03T03:28:11;7.15;;;3.78;;
55300;SDS011;58302;51.446;-2.000;2023-04-03T03:30:37;6.07;;;3.35;;
55300;SDS011;58302;51.446;-2.000;2023-04-03T03:33:03;14.68;;;4.05;;
55300;SDS011;58302;51.446;-2.000;2023-04-03T03:35:29;8.30;;;3.13;;
55300;SDS011;58302;51.446;-2.000;2023-04-03T03:37:55;7.47;;;2.50;;
55300;SDS011;58302;51.446;-2.000;2023-04-03T03:40:21;6.88;;;2.80;;
55300;SDS011;58302;51.446;-2.000;2023-04-03T03:42:47;4.88;;;2.22;;
55300;SDS011;58302;51.446;-2.000;2023-04-03T03:45:13;6.22;;;2.70;;
55300;SDS011;58302;51.446;-2.000;2023-04-03T03:47:40;8.18;;;3.25;;
55300;SDS011;58302;51.446;-2.000;2023-04-03T03:50:06;6.15;;;3.30;;
55300;SDS011;58302;51.446;-2.000;2023-04-03T03:52:32;8.05;;;2.85;;
55300;SDS011;58302;51.446;-2.000;2023-04-03T03:54:58;6.85;;;2.72;;
55300;SDS011;58302;51.446;-2.000;2023-04-03T03:57:24;11.30;;;3.40;;
55300;SDS011;58302;51.446;-2.000;2023-04-03T03:59:52;7.28;;;2.88;;
55300;SDS011;58302;51.446;-2.000;2023-04-03T04:02:18;6.72;;;3.38;;
55300;SDS011;58302;51.446;-2.000;2023-04-03T04:04:44;8.43;;;3.78;;
55300;SDS011;58302;51.446;-2.000;2023-04-03T04:07:10;8.30;;;3.58;;
55300;SDS011;58302;51.446;-2.000;2023-04-03T04:09:36;9.68;;;3.28;;
55300;SDS011;58302;51.446;-2.000;2023-04-03T04:12:02;6.20;;;3.60;;
55300;SDS011;58302;51.446;-2.000;2023-04-03T04:14:28;8.20;;;4.05;;
55300;SDS011;58302;51.446;-2.000;2023-04-03T04:16:54;8.70;;;4.10;;
55300;SDS011;58302;51.446;-2.000;2023-04-03T04:19:20;9.25;;;4.28;;
55300;SDS011;58302;51.446;-2.000;2023-04-03T04:21:46;9.85;;;4.13;;
55300;SDS011;58302;51.446;-2.000;2023-04-03T04:24:11;7.40;;;3.95;;
55300;SDS011;58302;51.446;-2.000;2023-04-03T04:26:37;11.43;;;4.45;;
55300;SDS011;58302;51.446;-2.000;2023-04-03T04:29:03;7.88;;;4.20;;
55300;SDS011;58302;51.446;-2.000;2023-04-03T04:31:29;6.50;;;3.47;;
55300;SDS011;58302;51.446;-2.000;2023-04-03T04:33:55;14.88;;;5.65;;
55300;SDS011;58302;51.446;-2.000;2023-04-03T04:36:21;8.52;;;4.05;;
55300;SDS011;58302;51.446;-2.000;2023-04-03T04:38:47;7.55;;;3.85;;
55300;SDS011;58302;51.446;-2.000;2023-04-03T04:41:13;17.67;;;5.53;;
55300;SDS011;58302;51.446;-2.000;2023-04-03T04:43:39;10.52;;;5.47;;
55300;SDS011;58302;51.446;-2.000;2023-04-03T04:46:06;15.20;;;5.85;;
55300;SDS011;58302;51.446;-2.000;2023-04-03T04:48:34;12.52;;;5.05;;
55300;SDS011;58302;51.446;-2.000;2023-04-03T04:51:00;11.73;;;5.70;;
55300;SDS011;58302;51.446;-2.000;2023-04-03T04:53:27;13.52;;;6.03;;
55300;SDS011;58302;51.446;-2.000;2023-04-03T04:55:53;10.02;;;5.28;;
55300;SDS011;58302;51.446;-2.000;2023-04-03T04:58:19;9.25;;;5.18;;
55300;SDS011;58302;51.446;-2.000;2023-04-03T05:00:45;10.00;;;5.18;;
55300;SDS011;58302;51.446;-2.000;2023-04-03T05:03:12;9.85;;;5.20;;
55300;SDS011;58302;51.446;-2.000;2023-04-03T05:05:38;15.35;;;7.05;;
55300;SDS011;58302;51.446;-2.000;2023-04-03T05:08:04;16.75;;;5.60;;
55300;SDS011;58302;51.446;-2.000;2023-04-03T05:10:30;12.95;;;7.88;;
55300;SDS011;58302;51.446;-2.000;2023-04-03T05:12:57;14.30;;;6.43;;
55300;SDS011;58302;51.446;-2.000;2023-04-03T05:15:23;14.98;;;5.68;;
55300;SDS011;58302;51.446;-2.000;2023-04-03T05:17:49;11.90;;;5.97;;
55300;SDS011;58302;51.446;-2.000;2023-04-03T05:20:16;16.20;;;5.80;;
55300;SDS011;58302;51.446;-2.000;2023-04-03T05:22:42;10.90;;;5.22;;
55300;SDS011;58302;51.446;-2.000;2023-04-03T05:25:08;11.63;;;5.22;;
55300;SDS011;58302;51.446;-2.000;2023-04-03T05:27:34;11.23;;;5.90;;
55300;SDS011;58302;51.446;-2.000;2023-04-03T05:30:01;13.70;;;6.25;;
55300;SDS011;58302;51.446;-2.000;2023-04-03T05:32:27;22.30;;;7.13;;
55300;SDS011;58302;51.446;-2.000;2023-04-03T05:34:53;14.75;;;6.10;;
55300;SDS011;58302;51.446;-2.000;2023-04-03T05:37:19;17.30;;;5.65;;
55300;SDS011;58302;51.446;-2.000;2023-04-03T05:39:45;13.45;;;5.43;;
55300;SDS011;58302;51.446;-2.000;2023-04-03T05:42:12;16.83;;;8.23;;
55300;SDS011;58302;51.446;-2.000;2023-04-03T05:44:39;17.48;;;6.32;;
55300;SDS011;58302;51.446;-2.000;2023-04-03T05:47:06;13.48;;;6.90;;
55300;SDS011;58302;51.446;-2.000;2023-04-03T05:49:32;22.17;;;7.43;;
55300;SDS011;58302;51.446;-2.000;2023-04-03T05:51:58;16.50;;;7.15;;
55300;SDS011;58302;51.446;-2.000;2023-04-03T05:54:25;15.90;;;6.70;;
55300;SDS011;58302;51.446;-2.000;2023-04-03T05:56:52;11.13;;;7.60;;
55300;SDS011;58302;51.446;-2.000;2023-04-03T05:59:19;21.98;;;8.70;;
55300;SDS011;58302;51.446;-2.000;2023-04-03T06:01:46;18.30;;;8.53;;
55300;SDS011;58302;51.446;-2.000;2023-04-03T06:04:12;19.58;;;9.25;;
55300;SDS011;58302;51.446;-2.000;2023-04-03T06:06:45;16.55;;;8.35;;
55300;SDS011;58302;51.446;-2.000;2023-04-03T06:09:13;16.35;;;9.77;;
55300;SDS011;58302;51.446;-2.000;2023-04-03T06:11:41;19.25;;;10.45;;
55300;SDS011;58302;51.446;-2.000;2023-04-03T06:14:08;19.52;;;11.25;;
55300;SDS011;58302;51.446;-2.000;2023-04-03T06:16:34;24.40;;;10.73;;
55300;SDS011;58302;51.446;-2.000;2023-04-03T06:19:00;20.42;;;11.15;;
55300;SDS011;58302;51.446;-2.000;2023-04-03T06:21:26;25.08;;;11.93;;
55300;SDS011;58302;51.446;-2.000;2023-04-03T06:23:52;18.45;;;11.40;;
55300;SDS011;58302;51.446;-2.000;2023-04-03T06:26:18;28.75;;;13.77;;
55300;SDS011;58302;51.446;-2.000;2023-04-03T06:28:44;25.70;;;13.27;;
55300;SDS011;58302;51.446;-2.000;2023-04-03T06:31:10;27.63;;;12.57;;
55300;SDS011;58302;51.446;-2.000;2023-04-03T06:33:36;21.40;;;12.68;;
55300;SDS011;58302;51.446;-2.000;2023-04-03T06:36:05;23.35;;;11.63;;
55300;SDS011;58302;51.446;-2.000;2023-04-03T06:38:32;24.48;;;11.40;;
55300;SDS011;58302;51.446;-2.000;2023-04-03T06:40:59;18.92;;;11.05;;
55300;SDS011;58302;51.446;-2.000;2023-04-03T06:43:25;24.42;;;12.20;;
55300;SDS011;58302;51.446;-2.000;2023-04-03T06:45:52;15.00;;;9.57;;
55300;SDS011;58302;51.446;-2.000;2023-04-03T06:48:18;17.55;;;10.48;;
55300;SDS011;58302;51.446;-2.000;2023-04-03T06:50:44;16.63;;;9.00;;
55300;SDS011;58302;51.446;-2.000;2023-04-03T06:53:11;16.92;;;8.15;;
55300;SDS011;58302;51.446;-2.000;2023-04-03T06:55:37;18.85;;;11.00;;
55300;SDS011;58302;51.446;-2.000;2023-04-03T06:58:03;97.97;;;58.30;;
55300;SDS011;58302;51.446;-2.000;2023-04-03T07:00:30;40.22;;;24.48;;
55300;SDS011;58302;51.446;-2.000;2023-04-03T07:02:56;70.32;;;44.95;;
55300;SDS011;58302;51.446;-2.000;2023-04-03T07:05:23;33.25;;;20.88;;
55300;SDS011;58302;51.446;-2.000;2023-04-03T07:07:50;74.07;;;42.65;;
55300;SDS011;58302;51.446;-2.000;2023-04-03T07:10:16;118.95;;;56.53;;
55300;SDS011;58302;51.446;-2.000;2023-04-03T07:12:42;38.55;;;20.42;;
55300;SDS011;58302;51.446;-2.000;2023-04-03T07:15:09;34.92;;;19.27;;
55300;SDS011;58302;51.446;-2.000;2023-04-03T07:17:35;60.20;;;30.58;;
55300;SDS011;58302;51.446;-2.000;2023-04-03T07:20:02;33.67;;;19.48;;
55300;SDS011;58302;51.446;-2.000;2023-04-03T07:22:29;26.55;;;13.02;;
55300;SDS011;58302;51.446;-2.000;2023-04-03T07:24:56;16.80;;;10.85;;
55300;SDS011;58302;51.446;-2.000;2023-04-03T07:27:22;18.38;;;12.55;;
55300;SDS011;58302;51.446;-2.000;2023-04-03T07:29:48;16.02;;;10.45;;
55300;SDS011;58302;51.446;-2.000;2023-04-03T07:32:14;12.32;;;5.70;;
55300;SDS011;58302;51.446;-2.000;2023-04-03T07:34:40;7.72;;;3.88;;
55300;SDS011;58302;51.446;-2.000;2023-04-03T07:37:07;7.75;;;5.00;;
55300;SDS011;58302;51.446;-2.000;2023-04-03T07:39:34;12.98;;;6.75;;
55300;SDS011;58302;51.446;-2.000;2023-04-03T07:42:00;6.63;;;3.47;;
55300;SDS011;58302;51.446;-2.000;2023-04-03T07:44:27;6.75;;;3.67;;
55300;SDS011;58302;51.446;-2.000;2023-04-03T07:46:53;8.10;;;3.22;;
55300;SDS011;58302;51.446;-2.000;2023-04-03T07:49:21;7.05;;;3.10;;
55300;SDS011;58302;51.446;-2.000;2023-04-03T07:51:49;5.75;;;3.38;;
55300;SDS011;58302;51.446;-2.000;2023-04-03T07:54:16;7.50;;;3.92;;
55300;SDS011;58302;51.446;-2.000;2023-04-03T07:56:41;6.63;;;2.55;;
55300;SDS011;58302;51.446;-2.000;2023-04-03T07:59:08;5.53;;;3.03;;
55300;SDS011;58302;51.446;-2.000;2023-04-03T08:01:35;7.75;;;3.63;;
55300;SDS011;58302;51.446;-2.000;2023-04-03T08:04:01;6.03;;;2.50;;
55300;SDS011;58302;51.446;-2.000;2023-04-03T08:06:27;3.85;;;2.15;;
55300;SDS011;58302;51.446;-2.000;2023-04-03T08:08:55;5.65;;;3.20;;
55300;SDS011;58302;51.446;-2.000;2023-04-03T08:11:21;5.70;;;2.47;;
55300;SDS011;58302;51.446;-2.000;2023-04-03T08:13:49;6.05;;;2.22;;
55300;SDS011;58302;51.446;-2.000;2023-04-03T08:16:18;6.13;;;2.33;;
55300;SDS011;58302;51.446;-2.000;2023-04-03T08:18:47;14.98;;;2.97;;
55300;SDS011;58302;51.446;-2.000;2023-04-03T08:21:13;6.50;;;2.63;;
55300;SDS011;58302;51.446;-2.000;2023-04-03T08:23:39;5.50;;;2.60;;
55300;SDS011;58302;51.446;-2.000;2023-04-03T08:26:09;6.32;;;1.77;;
55300;SDS011;58302;51.446;-2.000;2023-04-03T08:28:37;6.55;;;2.78;;
55300;SDS011;58302;51.446;-2.000;2023-04-03T08:31:03;9.50;;;5.50;;
55300;SDS011;58302;51.446;-2.000;2023-04-03T08:33:36;5.70;;;3.05;;
55300;SDS011;58302;51.446;-2.000;2023-04-03T08:36:06;5.03;;;2.55;;
55300;SDS011;58302;51.446;-2.000;2023-04-03T08:38:41;5.90;;;2.67;;
55300;SDS011;58302;51.446;-2.000;2023-04-03T08:49:47;4.63;;;2.20;;
55300;SDS011;58302;51.446;-2.000;2023-04-03T08:52:18;3.33;;;2.78;;
55300;SDS011;58302;51.446;-2.000;2023-04-03T08:54:53;4.22;;;1.83;;
55300;SDS011;58302;51.446;-2.000;2023-04-03T08:57:32;4.25;;;2.83;;
55300;SDS011;58302;51.446;-2.000;2023-04-03T09:00:05;3.10;;;2.00;;
55300;SDS011;58302;51.446;-2.000;2023-04-03T09:02:43;4.18;;;2.25;;
55300;SDS011;58302;51.446;-2.000;2023-04-03T09:05:20;7.88;;;2.20;;
55300;SDS011;58302;51.446;-2.000;2023-04-03T09:08:12;4.55;;;2.45;;
55300;SDS011;58302;51.446;-2.000;2023-04-03T09:10:44;4.93;;;2.78;;
55300;SDS011;58302;51.446;-2.000;2023-04-03T09:13:21;5.07;;;2.30;;
55300;SDS011;58302;51.446;-2.000;2023-04-03T09:15:56;3.08;;;2.08;;
55300;SDS011;58302;51.446;-2.000;2023-04-03T09:18:24;7.45;;;2.80;;
55300;SDS011;58302;51.446;-2.000;2023-04-03T09:21:12;7.05;;;2.65;;
55300;SDS011;58302;51.446;-2.000;2023-04-03T09:23:45;5.07;;;3.03;;
55300;SDS011;58302;51.446;-2.000;2023-04-03T09:28:51;8.15;;;2.90;;
55300;SDS011;58302;51.446;-2.000;2023-04-03T09:31:26;5.70;;;3.13;;
55300;SDS011;58302;51.446;-2.000;2023-04-03T09:33:59;8.43;;;3.45;;
55300;SDS011;58302;51.446;-2.000;2023-04-03T09:39:24;5.53;;;2.50;;
55300;SDS011;58302;51.446;-2.000;2023-04-03T09:44:43;3.90;;;2.70;;
55300;SDS011;58302;51.446;-2.000;2023-04-03T09:47:27;5.70;;;3.47;;
55300;SDS011;58302;51.446;-2.000;2023-04-03T09:52:44;5.28;;;3.85;;
55300;SDS011;58302;51.446;-2.000;2023-04-03T09:57:45;6.13;;;2.58;;
55300;SDS011;58302;51.446;-2.000;2023-04-03T10:00:21;8.75;;;3.78;;
55300;SDS011;58302;51.446;-2.000;2023-04-03T10:02:56;4.15;;;2.65;;
55300;SDS011;58302;51.446;-2.000;2023-04-03T10:08:09;5.50;;;3.53;;
55300;SDS011;58302;51.446;-2.000;2023-04-03T10:10:42;4.78;;;3.00;;
55300;SDS011;58302;51.446;-2.000;2023-04-03T10:13:19;5.82;;;2.70;;
55300;SDS011;58302;51.446;-2.000;2023-04-03T10:15:57;6.35;;;3.42;;
55300;SDS011;58302;51.446;-2.000;2023-04-03T10:18:44;5.57;;;3.45;;
55300;SDS011;58302;51.446;-2.000;2023-04-03T10:27:13;5.70;;;3.40;;
55300;SDS011;58302;51.446;-2.000;2023-04-03T10:32:43;8.43;;;3.47;;
55300;SDS011;58302;51.446;-2.000;2023-04-03T10:35:15;6.57;;;3.50;;
55300;SDS011;58302;51.446;-2.000;2023-04-03T10:37:54;7.13;;;3.60;;
55300;SDS011;58302;51.446;-2.000;2023-04-03T10:40:47;4.95;;;2.80;;
55300;SDS011;58302;51.446;-2.000;2023-04-03T10:45:51;5.05;;;3.47;;
55300;SDS011;58302;51.446;-2.000;2023-04-03T10:52:14;7.47;;;3.05;;
55300;SDS011;58302;51.446;-2.000;2023-04-03T10:54:38;6.28;;;3.72;;
55300;SDS011;58302;51.446;-2.000;2023-04-03T10:57:08;3.33;;;3.03;;
55300;SDS011;58302;51.446;-2.000;2023-04-03T11:08:02;7.50;;;3.58;;
55300;SDS011;58302;51.446;-2.000;2023-04-03T11:10:44;8.45;;;4.05;;
55300;SDS011;58302;51.446;-2.000;2023-04-03T11:13:14;5.35;;;3.75;;
55300;SDS011;58302;51.446;-2.000;2023-04-03T11:15:42;5.88;;;3.28;;
55300;SDS011;58302;51.446;-2.000;2023-04-03T11:18:12;3.95;;;3.10;;
55300;SDS011;58302;51.446;-2.000;2023-04-03T11:20:42;6.40;;;3.22;;
55300;SDS011;58302;51.446;-2.000;2023-04-03T11:23:24;4.45;;;2.97;;
55300;SDS011;58302;51.446;-2.000;2023-04-03T11:25:54;8.00;;;3.33;;
55300;SDS011;58302;51.446;-2.000;2023-04-03T11:28:28;4.70;;;3.65;;
55300;SDS011;58302;51.446;-2.000;2023-04-03T11:31:15;6.88;;;3.33;;
55300;SDS011;58302;51.446;-2.000;2023-04-03T11:34:13;5.63;;;3.03;;
55300;SDS011;58302;51.446;-2.000;2023-04-03T11:42:48;7.85;;;3.90;;
55300;SDS011;58302;51.446;-2.000;2023-04-03T11:47:59;4.88;;;3.15;;
55300;SDS011;58302;51.446;-2.000;2023-04-03T12:16:26;4.30;;;3.33;;
55300;SDS011;58302;51.446;-2.000;2023-04-03T12:29:29;4.75;;;3.47;;
55300;SDS011;58302;51.446;-2.000;2023-04-03T12:35:08;5.10;;;3.67;;
55300;SDS011;58302;51.446;-2.000;2023-04-03T12:45:26;4.22;;;3.25;;
55300;SDS011;58302;51.446;-2.000;2023-04-03T12:47:53;7.45;;;3.88;;
55300;SDS011;58302;51.446;-2.000;2023-04-03T12:55:32;4.47;;;4.07;;
55300;SDS011;58302;51.446;-2.000;2023-04-03T12:58:13;7.10;;;4.05;;
55300;SDS011;58302;51.446;-2.000;2023-04-03T13:00:40;8.00;;;5.40;;
55300;SDS011;58302;51.446;-2.000;2023-04-03T13:03:07;8.35;;;4.47;;
55300;SDS011;58302;51.446;-2.000;2023-04-03T13:05:48;6.53;;;3.95;;
55300;SDS011;58302;51.446;-2.000;2023-04-03T13:08:14;9.10;;;4.18;;
55300;SDS011;58302;51.446;-2.000;2023-04-03T13:10:51;3.88;;;3.13;;
55300;SDS011;58302;51.446;-2.000;2023-04-03T13:13:21;5.32;;;3.92;;
55300;SDS011;58302;51.446;-2.000;2023-04-03T13:15:48;4.50;;;4.10;;
55300;SDS011;58302;51.446;-2.000;2023-04-03T13:20:51;5.68;;;3.58;;
55300;SDS011;58302;51.446;-2.000;2023-04-03T13:23:17;9.63;;;4.07;;
55300;SDS011;58302;51.446;-2.000;2023-04-03T13:25:46;6.03;;;3.78;;
55300;SDS011;58302;51.446;-2.000;2023-04-03T13:28:21;6.10;;;3.70;;
55300;SDS011;58302;51.446;-2.000;2023-04-03T13:33:30;7.20;;;3.95;;
55300;SDS011;58302;51.446;-2.000;2023-04-03T13:38:36;9.70;;;4.10;;
55300;SDS011;58302;51.446;-2.000;2023-04-03T13:41:04;6.00;;;4.05;;
55300;SDS011;58302;51.446;-2.000;2023-04-03T13:43:48;4.93;;;3.70;;
55300;SDS011;58302;51.446;-2.000;2023-04-03T13:48:44;5.43;;;4.05;;
55300;SDS011;58302;51.446;-2.000;2023-04-03T13:53:43;4.47;;;3.58;;
55300;SDS011;58302;51.446;-2.000;2023-04-03T13:56:25;6.60;;;4.43;;
55300;SDS011;58302;51.446;-2.000;2023-04-03T13:59:20;9.88;;;4.72;;
55300;SDS011;58302;51.446;-2.000;2023-04-03T14:04:25;11.45;;;5.13;;
55300;SDS011;58302;51.446;-2.000;2023-04-03T14:06:53;6.18;;;3.97;;
55300;SDS011;58302;51.446;-2.000;2023-04-03T14:09:20;8.85;;;4.60;;
55300;SDS011;58302;51.446;-2.000;2023-04-03T14:11:48;6.60;;;4.53;;
55300;SDS011;58302;51.446;-2.000;2023-04-03T14:14:18;5.68;;;4.18;;
55300;SDS011;58302;51.446;-2.000;2023-04-03T14:16:49;9.70;;;5.38;;
55300;SDS011;58302;51.446;-2.000;2023-04-03T14:19:22;5.00;;;4.30;;
55300;SDS011;58302;51.446;-2.000;2023-04-03T14:21:51;5.70;;;4.90;;
55300;SDS011;58302;51.446;-2.000;2023-04-03T14:24:19;6.63;;;4.72;;
55300;SDS011;58302;51.446;-2.000;2023-04-03T14:26:46;9.18;;;6.10;;
55300;SDS011;58302;51.446;-2.000;2023-04-03T14:29:13;7.03;;;4.40;;
55300;SDS011;58302;51.446;-2.000;2023-04-03T14:31:41;7.20;;;4.40;;
55300;SDS011;58302;51.446;-2.000;2023-04-03T14:34:09;9.32;;;5.15;;
55300;SDS011;58302;51.446;-2.000;2023-04-03T14:36:37;6.25;;;4.80;;
55300;SDS011;58302;51.446;-2.000;2023-04-03T14:39:06;5.60;;;4.47;;
55300;SDS011;58302;51.446;-2.000;2023-04-03T14:41:34;4.85;;;4.32;;
55300;SDS011;58302;51.446;-2.000;2023-04-03T14:44:00;6.95;;;4.50;;
55300;SDS011;58302;51.446;-2.000;2023-04-03T14:46:28;12.18;;;4.70;;
55300;SDS011;58302;51.446;-2.000;2023-04-03T14:48:57;6.22;;;4.38;;
55300;SDS011;58302;51.446;-2.000;2023-04-03T14:51:24;6.50;;;4.47;;
55300;SDS011;58302;51.446;-2.000;2023-04-03T14:53:51;7.25;;;5.45;;
55300;SDS011;58302;51.446;-2.000;2023-04-03T14:56:18;7.63;;;4.70;;
55300;SDS011;58302;51.446;-2.000;2023-04-03T14:58:49;6.20;;;4.57;;
55300;SDS011;58302;51.446;-2.000;2023-04-03T15:01:17;6.25;;;5.30;;
55300;SDS011;58302;51.446;-2.000;2023-04-03T15:03:44;7.25;;;5.03;;
55300;SDS011;58302;51.446;-2.000;2023-04-03T15:06:11;7.55;;;5.90;;
55300;SDS011;58302;51.446;-2.000;2023-04-03T15:08:38;7.00;;;4.78;;
55300;SDS011;58302;51.446;-2.000;2023-04-03T15:11:06;5.85;;;4.43;;
55300;SDS011;58302;51.446;-2.000;2023-04-03T15:13:32;9.75;;;5.72;;
55300;SDS011;58302;51.446;-2.000;2023-04-03T15:15:58;6.78;;;4.38;;
55300;SDS011;58302;51.446;-2.000;2023-04-03T15:18:25;5.43;;;4.03;;
55300;SDS011;58302;51.446;-2.000;2023-04-03T15:20:53;6.32;;;3.80;;
55300;SDS011;58302;51.446;-2.000;2023-04-03T15:23:20;5.28;;;3.85;;
55300;SDS011;58302;51.446;-2.000;2023-04-03T15:25:51;9.25;;;4.30;;
55300;SDS011;58302;51.446;-2.000;2023-04-03T15:28:22;7.43;;;4.40;;
55300;SDS011;58302;51.446;-2.000;2023-04-03T15:30:53;8.27;;;4.38;;
55300;SDS011;58302;51.446;-2.000;2023-04-03T15:33:19;6.68;;;4.55;;
55300;SDS011;58302;51.446;-2.000;2023-04-03T15:35:45;6.43;;;4.15;;
55300;SDS011;58302;51.446;-2.000;2023-04-03T15:38:11;5.28;;;4.05;;
55300;SDS011;58302;51.446;-2.000;2023-04-03T15:40:37;5.05;;;3.97;;
55300;SDS011;58302;51.446;-2.000;2023-04-03T15:43:04;5.60;;;4.57;;
55300;SDS011;58302;51.446;-2.000;2023-04-03T15:45:31;7.25;;;4.45;;
55300;SDS011;58302;51.446;-2.000;2023-04-03T15:47:59;6.43;;;3.95;;
55300;SDS011;58302;51.446;-2.000;2023-04-03T15:50:25;5.07;;;3.75;;
55300;SDS011;58302;51.446;-2.000;2023-04-03T15:52:51;5.40;;;3.45;;
55300;SDS011;58302;51.446;-2.000;2023-04-03T15:55:26;7.18;;;4.07;;
55300;SDS011;58302;51.446;-2.000;2023-04-03T15:57:53;5.55;;;3.17;;
55300;SDS011;58302;51.446;-2.000;2023-04-03T16:00:20;7.05;;;3.75;;
55300;SDS011;58302;51.446;-2.000;2023-04-03T16:02:47;3.35;;;3.05;;
55300;SDS011;58302;51.446;-2.000;2023-04-03T16:05:17;4.53;;;3.60;;
55300;SDS011;58302;51.446;-2.000;2023-04-03T16:07:45;6.03;;;4.20;;
55300;SDS011;58302;51.446;-2.000;2023-04-03T16:10:13;6.45;;;3.53;;
55300;SDS011;58302;51.446;-2.000;2023-04-03T16:12:40;4.05;;;3.03;;
55300;SDS011;58302;51.446;-2.000;2023-04-03T16:15:06;5.75;;;3.65;;
55300;SDS011;58302;51.446;-2.000;2023-04-03T16:17:34;5.63;;;3.20;;
55300;SDS011;58302;51.446;-2.000;2023-04-03T16:20:01;4.90;;;3.72;;
55300;SDS011;58302;51.446;-2.000;2023-04-03T16:22:28;5.75;;;4.13;;
55300;SDS011;58302;51.446;-2.000;2023-04-03T16:24:55;6.80;;;4.25;;
55300;SDS011;58302;51.446;-2.000;2023-04-03T16:27:21;5.47;;;3.55;;
55300;SDS011;58302;51.446;-2.000;2023-04-03T16:29:47;8.82;;;4.47;;
55300;SDS011;58302;51.446;-2.000;2023-04-03T16:32:13;4.00;;;3.00;;
55300;SDS011;58302;51.446;-2.000;2023-04-03T16:34:40;6.25;;;3.53;;
55300;SDS011;58302;51.446;-2.000;2023-04-03T16:37:06;8.13;;;3.45;;
55300;SDS011;58302;51.446;-2.000;2023-04-03T16:39:34;5.50;;;3.50;;
55300;SDS011;58302;51.446;-2.000;2023-04-03T16:42:01;3.30;;;3.00;;
55300;SDS011;58302;51.446;-2.000;2023-04-03T16:44:27;5.10;;;3.17;;
55300;SDS011;58302;51.446;-2.000;2023-04-03T16:46:53;3.85;;;2.90;;
55300;SDS011;58302;51.446;-2.000;2023-04-03T16:49:19;5.13;;;3.13;;
55300;SDS011;58302;51.446;-2.000;2023-04-03T16:51:45;5.25;;;3.40;;
55300;SDS011;58302;51.446;-2.000;2023-04-03T16:54:12;4.43;;;3.40;;